Bosporus — V2QY — position and weather

sailwx.info

Track history (hours):
 
Tides and Currents Weather Stations Pressure Air Temp Water Temp Dewpoint Dewpoint Depression Visibility Wind Speed Wind Dir Waves Ship Positions

Bosporus

Last reported at 2017-Mar-23 21:33 UTC. Time now 2017-Mar-23 22:02 UTC.
Position N 37°44' E 024°22'.

Length 100 m; draft 4.7 m.

Type: Cargo ship. MMSI: 304010802.

Date/timePositionNaut miles runAvg speedWind from/ knotsBaromVisibWave heightAir tempDewpointWater temp
2017-Mar-23 21:33N 37°44' E 024°22'33 8.3
2017-Mar-23 17:33N 37°42' E 023°40'9 9.5
2017-Mar-23 16:33N 37°50' E 023°32'1110.6
2017-Mar-23 15:33N 37°51' E 023°19'  
2017-Mar-21 02:13N 37°53' E 015°36'6 8.5
2017-Mar-21 01:30N 37°58' E 015°32'1010.6
2017-Mar-21 00:33N 38°08' E 015°34'1010.1
2017-Mar-20 23:33N 38°17' E 015°40'9 9.4
2017-Mar-20 22:33N 38°23' E 015°31'1010.0
2017-Mar-20 21:33N 38°28' E 015°20'  
2017-Mar-18 09:18N 43°22' E 004°58'5 0.2
2017-Mar-17 09:31N 43°26' E 004°54'4 4.2
2017-Mar-17 08:33N 43°24' E 004°58'0 0.0
2017-Mar-17 07:33N 43°24' E 004°58'0 0.0
2017-Mar-17 06:33N 43°24' E 004°58'0 0.0
2017-Mar-17 05:33N 43°24' E 004°58'0 0.0
2017-Mar-17 04:33N 43°24' E 004°58'0 0.0
2017-Mar-17 03:33N 43°24' E 004°58'0 0.0
2017-Mar-17 02:33N 43°24' E 004°58'0 0.0
2017-Mar-17 01:33N 43°24' E 004°58'0 0.1
2017-Mar-17 00:33N 43°24' E 004°58'0 0.0
2017-Mar-16 23:33N 43°24' E 004°58'0 0.0
2017-Mar-16 22:33N 43°24' E 004°58'0 0.0
2017-Mar-16 21:33N 43°24' E 004°58'0 0.0
2017-Mar-16 20:33N 43°24' E 004°58'0 0.0
2017-Mar-16 19:33N 43°24' E 004°58'0 0.0
2017-Mar-16 18:33N 43°24' E 004°58'0 0.0
2017-Mar-16 17:33N 43°24' E 004°58'0 0.0
2017-Mar-16 16:33N 43°24' E 004°58'0 0.0
2017-Mar-16 15:33N 43°24' E 004°58'0 0.0
2017-Mar-16 14:33N 43°24' E 004°58'0 0.0
2017-Mar-16 13:33N 43°24' E 004°58'0 0.0
2017-Mar-16 12:33N 43°24' E 004°58'0 0.0
2017-Mar-16 11:33N 43°24' E 004°58'0 0.1
2017-Mar-16 10:33N 43°24' E 004°58'0 0.0
2017-Mar-16 09:33N 43°24' E 004°58'0 0.0
2017-Mar-16 08:33N 43°24' E 004°58'0 0.0
2017-Mar-16 07:33N 43°24' E 004°58'0 0.0
2017-Mar-16 06:33N 43°24' E 004°58'0 0.0
2017-Mar-16 05:33N 43°24' E 004°58'0 0.0
2017-Mar-16 04:33N 43°24' E 004°58'0 0.0
2017-Mar-16 03:33N 43°24' E 004°58'0 0.0
2017-Mar-16 02:33N 43°24' E 004°58'0 0.0
2017-Mar-16 01:33N 43°24' E 004°58'0 0.0
2017-Mar-16 00:33N 43°24' E 004°58'0 0.0
2017-Mar-15 23:33N 43°24' E 004°58'0 0.0
2017-Mar-15 22:33N 43°24' E 004°58'0 0.0
2017-Mar-15 21:33N 43°24' E 004°58'0 0.0
2017-Mar-15 20:32N 43°24' E 004°58'0 0.0
2017-Mar-15 19:33N 43°24' E 004°58'0 0.0
2017-Mar-15 18:33N 43°24' E 004°58'0 0.0
2017-Mar-15 17:33N 43°24' E 004°58'0 0.0
2017-Mar-15 16:33N 43°24' E 004°58'0 0.0
2017-Mar-15 15:33N 43°24' E 004°58'0 0.0
2017-Mar-15 14:33N 43°24' E 004°58'0 0.0
2017-Mar-15 13:33N 43°24' E 004°58'0 0.0
2017-Mar-15 12:33N 43°24' E 004°58'0 0.0
2017-Mar-15 11:33N 43°24' E 004°58'0 0.0
2017-Mar-15 10:33N 43°24' E 004°58'149 9.1
2017-Mar-14 18:13N 43°05' E 008°22'6 9.7
2017-Mar-14 17:33N 43°05' E 008°30'1410.1
2017-Mar-14 16:10N 43°07' E 008°49'  
Track history (hours):
 
Tides and Currents Weather Stations Pressure Air Temp Water Temp Dewpoint Dewpoint Depression Visibility Wind Speed Wind Dir Waves Ship Positions

Bosporus

Last reported at 2017-Mar-23 21:33 UTC. Time now 2017-Mar-23 22:02 UTC.
Position N 37°44' E 024°22'.

Length 100 m; draft 4.7 m.

Type: Cargo ship. MMSI: 304010802.

Date/timePositionNaut miles runAvg speedWind from/ knotsBaromVisibWave heightAir tempDewpointWater temp
2017-Mar-23 21:33N 37°44' E 024°22'33 8.3
2017-Mar-23 17:33N 37°42' E 023°40'9 9.5
2017-Mar-23 16:33N 37°50' E 023°32'1110.6
2017-Mar-23 15:33N 37°51' E 023°19'  
2017-Mar-21 02:13N 37°53' E 015°36'6 8.5
2017-Mar-21 01:30N 37°58' E 015°32'1010.6
2017-Mar-21 00:33N 38°08' E 015°34'1010.1
2017-Mar-20 23:33N 38°17' E 015°40'9 9.4
2017-Mar-20 22:33N 38°23' E 015°31'1010.0
2017-Mar-20 21:33N 38°28' E 015°20'  
2017-Mar-18 09:18N 43°22' E 004°58'5 0.2
2017-Mar-17 09:31N 43°26' E 004°54'4 4.2
2017-Mar-17 08:33N 43°24' E 004°58'0 0.0
2017-Mar-17 07:33N 43°24' E 004°58'0 0.0
2017-Mar-17 06:33N 43°24' E 004°58'0 0.0
2017-Mar-17 05:33N 43°24' E 004°58'0 0.0
2017-Mar-17 04:33N 43°24' E 004°58'0 0.0
2017-Mar-17 03:33N 43°24' E 004°58'0 0.0
2017-Mar-17 02:33N 43°24' E 004°58'0 0.0
2017-Mar-17 01:33N 43°24' E 004°58'0 0.1
2017-Mar-17 00:33N 43°24' E 004°58'0 0.0
2017-Mar-16 23:33N 43°24' E 004°58'0 0.0
2017-Mar-16 22:33N 43°24' E 004°58'0 0.0
2017-Mar-16 21:33N 43°24' E 004°58'0 0.0
2017-Mar-16 20:33N 43°24' E 004°58'0 0.0
2017-Mar-16 19:33N 43°24' E 004°58'0 0.0
2017-Mar-16 18:33N 43°24' E 004°58'0 0.0
2017-Mar-16 17:33N 43°24' E 004°58'0 0.0
2017-Mar-16 16:33N 43°24' E 004°58'0 0.0
2017-Mar-16 15:33N 43°24' E 004°58'0 0.0
2017-Mar-16 14:33N 43°24' E 004°58'0 0.0
2017-Mar-16 13:33N 43°24' E 004°58'0 0.0
2017-Mar-16 12:33N 43°24' E 004°58'0 0.0
2017-Mar-16 11:33N 43°24' E 004°58'0 0.1
2017-Mar-16 10:33N 43°24' E 004°58'0 0.0
2017-Mar-16 09:33N 43°24' E 004°58'0 0.0
2017-Mar-16 08:33N 43°24' E 004°58'0 0.0
2017-Mar-16 07:33N 43°24' E 004°58'0 0.0
2017-Mar-16 06:33N 43°24' E 004°58'0 0.0
2017-Mar-16 05:33N 43°24' E 004°58'0 0.0
2017-Mar-16 04:33N 43°24' E 004°58'0 0.0
2017-Mar-16 03:33N 43°24' E 004°58'0 0.0
2017-Mar-16 02:33N 43°24' E 004°58'0 0.0
2017-Mar-16 01:33N 43°24' E 004°58'0 0.0
2017-Mar-16 00:33N 43°24' E 004°58'0 0.0
2017-Mar-15 23:33N 43°24' E 004°58'0 0.0
2017-Mar-15 22:33N 43°24' E 004°58'0 0.0
2017-Mar-15 21:33N 43°24' E 004°58'0 0.0
2017-Mar-15 20:32N 43°24' E 004°58'0 0.0
2017-Mar-15 19:33N 43°24' E 004°58'0 0.0
2017-Mar-15 18:33N 43°24' E 004°58'0 0.0
2017-Mar-15 17:33N 43°24' E 004°58'0 0.0
2017-Mar-15 16:33N 43°24' E 004°58'0 0.0
2017-Mar-15 15:33N 43°24' E 004°58'0 0.0
2017-Mar-15 14:33N 43°24' E 004°58'0 0.0
2017-Mar-15 13:33N 43°24' E 004°58'0 0.0
2017-Mar-15 12:33N 43°24' E 004°58'0 0.0
2017-Mar-15 11:33N 43°24' E 004°58'0 0.0
2017-Mar-15 10:33N 43°24' E 004°58'149 9.1
2017-Mar-14 18:13N 43°05' E 008°22'6 9.7
2017-Mar-14 17:33N 43°05' E 008°30'1410.1
2017-Mar-14 16:10N 43°07' E 008°49'  

Dump ship's entire track history